• Join FlightAware (Why Join?)
  • Login
  • US Flag 
11:51PM EST


 

Airport Tracker/Info


-or-


 

Live Flight TrackerFlight Track Log ✈ N531RQ ✈ 31-Mar-2014 ✈ KMDW - KJVY

Flight Track Log - Related Links

Times and Time Zones

All times are in EDT time to prevent confusion due to time zone crossing. See the N531RQ flight status page for this flight to view local times or setup timezone preferences in your user account.

Time Position Orientation Groundspeed Altitude Reporting Facility
EDT Latitude Longitude Course Direction KTS MPH feet Rate Location/Type
04:17PM 41.7500 -87.7333 180° South 184 212 2,900  Level Chicago TRACON
04:18PM 41.6794 -87.7094 166° South 205 236 6,700 3,176 Climbing Chicago Center
04:19PM 41.6158 -87.7161 184° South 228 262 10,100 2,565 Climbing Chicago Center
04:20PM 41.5361 -87.7192 182° South 262 302 12,000 919 Climbing Chicago Center
04:21PM 41.4533 -87.7231 182° South 293 337 12,000 581 Level Chicago Center
04:22PM 41.3334 -87.7167 180° South  Level FlightAware Approximate
04:22PM 41.3714 -87.7244 181° South 290 334 13,200  Level Chicago Center
04:23PM 41.2875 -87.7253 180° South 279 321 15,100 871 Climbing Chicago Center
04:24PM 41.1992 -87.7236 179° South 314 361 15,000 726 Descending Chicago Center
04:25PM 41.1086 -87.6706 156° South 326 375 16,600 968 Climbing Chicago Center
04:26PM 41.0214 -87.6172 155° Southeast 344 396 17,000 242 Climbing Chicago Center
04:27PM 40.9300 -87.5639 156° South 355 409 17,100 960 Climbing Chicago Center
04:28PM 40.8400 -87.5119 156° South 359 413 19,000 1,872 Climbing Chicago Center
04:29PM 40.7533 -87.4608 156° South 348 400 21,000 968 Climbing Chicago Center
04:30PM 40.6492 -87.3994 156° South 372 428 21,000  Level Chicago Center
04:31PM 40.5497 -87.3422 156° South 388 447 21,000  Level Chicago Center
04:32PM 40.4497 -87.2831 156° South 390 449 21,000  Level Chicago Center
04:33PM 40.3494 -87.2256 156° South 392 451 21,000  Level Chicago Center
04:34PM 40.2278 -87.1550 156° South 399 459 21,000  Level Chicago Center
04:35PM 40.1264 -87.0961 156° South 399 459 21,000  Level Chicago Center
04:36PM 40.0244 -87.0375 156° South 400 460 21,000  Level Chicago Center
04:38PM 39.9233 -86.9800 156° South 401 461 21,000  Level Chicago Center
04:39PM 39.8222 -86.9217 156° South 401 461 21,000  Level Chicago Center
04:40PM 39.7000 -86.8539 157° South 401 461 21,000  Level Chicago Center
04:41PM 39.5953 -86.8164 165° South 393 452 21,000  Level Chicago Center
04:42PM 39.4892 -86.7950 171° South 391 450 21,000  Level Chicago Center
04:43PM 39.3825 -86.7703 170° South 391 450 21,000  Level Chicago Center
04:44PM 39.2750 -86.7464 170° South 391 450 21,000 -353 Level Chicago Center
04:45PM 39.1147 -86.6881 164° South 394 453 20,100 -392 Descending Indianapolis Center
04:46PM 39.0244 -86.5978 142° Southeast 401 461 20,000 -968 Descending Indianapolis Center
04:47PM 38.9400 -86.5142 142° Southeast 391 450 18,100 -2,419 Descending Indianapolis Center
04:48PM 38.8475 -86.4278 144° Southeast 353 406 15,000 -2,855 Descending Indianapolis Center
04:49PM 38.7728 -86.3431 139° Southeast 355 409 12,200 -2,661 Descending Indianapolis Center
04:50PM 38.7128 -86.2478 129° Southeast 349 402 9,500 -2,323 Descending Indianapolis Center
04:51PM 38.6611 -86.1703 130° Southeast 300 345 7,400 -1,210 Descending Indianapolis Center
04:52PM 38.6117 -86.0992 132° Southeast 274 315 7,000 -919 Descending Indianapolis Center
04:54PM 38.5647 -86.0289 130° Southeast 264 304 5,500 -1,452 Descending Indianapolis Center
04:55PM 38.5236 -85.9603 127° Southeast 247 284 4,000 -1,200 Descending Indianapolis Center
04:56PM 38.4958 -85.8886 116° Southeast 235 270 3,000 -480 Descending Indianapolis Center
04:57PM 38.4756 -85.8219 111° Southeast 216 249 3,000  Level Indianapolis Center